Time;durP1;ratioP1;P1;durP2;ratioP2;P2;SDS_P1;SDS_P2;PMS_P1;PMS_P2;Temp;Humidity;BMP_temperature;BMP_pressure;BME280_temperature;BME280_humidity;BME280_pressure;Samples;Min_cycle;Max_cycle;Signal;HPM_P1;HPM_P2
2022/01/15 00:03:11;;;;;;;30.20;11.30;;;;;;;1.54;75.23;101472.64;108997;1273;21991;-79
2022/01/15 00:05:58;;;;;;;30.40;11.80;;;;;;;1.51;75.31;101474.16;108450;1279;21968;-79
2022/01/15 00:09:32;;;;;;;36.10;12.60;;;;;;;1.50;75.25;101476.52;108297;1283;21987;-78
2022/01/15 00:12:54;;;;;;;29.30;10.00;;;;;;;1.45;75.45;101471.05;108036;1283;23101;-80
2022/01/15 00:15:52;;;;;;;29.80;10.20;;;;;;;1.42;75.55;101468.94;108292;1282;22395;-78
2022/01/15 00:18:39;;;;;;;34.20;9.80;;;;;;;1.38;75.51;101469.65;108008;1286;22006;-78
2022/01/15 00:21:27;;;;;;;31.40;10.00;;;;;;;1.37;75.53;101473.20;108129;1281;22887;-78
2022/01/15 00:24:08;;;;;;;30.10;11.30;;;;;;;1.34;75.60;101471.07;108720;1276;22123;-80
2022/01/15 00:26:50;;;;;;;34.60;10.40;;;;;;;1.33;75.67;101472.00;108817;1277;23800;-79
2022/01/15 00:29:31;;;;;;;36.60;11.10;;;;;;;1.32;75.70;101474.30;108784;1277;22618;-79
2022/01/15 00:32:07;;;;;;;25.90;10.30;;;;;;;1.32;75.75;101475.03;109256;1270;22039;-80
2022/01/15 00:34:58;;;;;;;26.70;9.50;;;;;;;1.31;75.75;101474.77;109113;1270;23698;-79
2022/01/15 00:37:39;;;;;;;30.30;11.40;;;;;;;1.27;75.70;101469.03;109736;1263;21997;-81
2022/01/15 00:40:59;;;;;;;29.60;12.10;;;;;;;1.23;75.78;101463.33;109787;1261;22039;-80
2022/01/15 00:43:49;;;;;;;33.00;12.30;;;;;;;1.23;75.93;101465.61;110078;1260;21995;-80
2022/01/15 00:46:55;;;;;;;33.20;13.20;;;;;;;1.23;75.94;101464.89;110211;1260;23299;-80
2022/01/15 00:50:03;;;;;;;36.80;13.00;;;;;;;1.20;75.84;101469.05;110280;1260;21986;-81
2022/01/15 00:53:16;;;;;;;35.80;13.60;;;;;;;1.19;75.91;101475.35;109681;1260;22020;-80
2022/01/15 00:56:53;;;;;;;;;;;;;;;;;;;;;
2022/01/15 01:00:04;;;;;;;37.90;12.40;;;;;;;1.10;76.11;101482.38;110187;1260;21997;-79
2022/01/15 01:03:48;;;;;;;;;;;;;;;;;;;;;
2022/01/15 01:07:00;;;;;;;30.10;10.00;;;;;;;1.09;76.18;101482.43;109498;1266;21988;-80
2022/01/15 01:10:15;;;;;;;29.80;11.00;;;;;;;1.09;76.28;101486.27;109285;1270;22310;-78
2022/01/15 01:20:22;;;;;;;;;;;;;;;;;;;;;
2022/01/15 01:23:39;;;;;;;29.70;10.10;;;;;;;1.08;76.48;101478.54;109737;1264;23004;-80
2022/01/15 01:27:40;;;;;;;28.20;9.60;;;;;;;1.08;76.56;101479.58;109558;1266;23802;-81
2022/01/15 01:31:13;;;;;;;27.10;10.40;;;;;;;1.07;76.55;101482.20;109576;1267;22774;-80
2022/01/15 01:34:31;;;;;;;30.30;11.90;;;;;;;1.05;76.44;101482.46;109443;1267;23609;-81
2022/01/15 01:37:45;;;;;;;27.90;9.90;;;;;;;1.04;76.40;101481.31;108983;1273;22066;-79
2022/01/15 01:40:38;;;;;;;33.80;11.70;;;;;;;1.04;76.46;101480.64;108787;1273;22155;-80
2022/01/15 01:43:44;;;;;;;28.60;10.60;;;;;;;1.03;76.41;101479.52;108659;1273;22453;-78
2022/01/15 01:50:03;;;;;;;31.90;11.50;;;;;;;1.01;76.48;101478.89;108907;1273;22039;-80
2022/01/15 01:53:02;;;;;;;34.10;11.20;;;;;;;0.98;76.37;101476.79;109115;1273;21999;-79
2022/01/15 01:56:16;;;;;;;37.80;12.10;;;;;;;0.95;76.39;101476.56;108926;1273;22123;-79
2022/01/15 01:59:34;;;;;;;24.60;10.20;;;;;;;0.93;76.46;101478.40;108917;1272;22004;-80
2022/01/15 02:02:43;;;;;;;28.50;10.80;;;;;;;0.92;76.42;101475.70;109058;1270;22756;-81
2022/01/15 02:06:17;;;;;;;32.20;11.20;;;;;;;0.92;76.49;101485.08;109570;1264;22026;-79
2022/01/15 02:09:15;;;;;;;29.80;11.60;;;;;;;0.88;76.40;101483.52;108916;1270;22685;-80
2022/01/15 02:12:24;;;;;;;25.20;9.90;;;;;;;0.87;76.51;101479.95;108979;1270;21985;-79
2022/01/15 02:15:44;;;;;;;29.90;10.90;;;;;;;0.85;76.55;101475.86;109223;1270;23703;-80
2022/01/15 02:19:14;;;;;;;27.00;8.60;;;;;;;0.81;76.62;101470.52;108558;1280;21990;-80
2022/01/15 02:25:39;;;;;;;25.80;8.90;;;;;;;0.77;76.85;101471.42;108534;1280;21968;-80
2022/01/15 02:28:31;;;;;;;27.70;9.20;;;;;;;0.76;76.86;101470.78;108659;1279;22012;-79
2022/01/15 02:31:45;;;;;;;23.00;8.10;;;;;;;0.77;76.93;101468.86;108465;1280;23778;-79
2022/01/15 02:34:41;;;;;;;29.00;9.00;;;;;;;0.76;76.87;101465.62;108588;1276;22732;-79
2022/01/15 02:37:40;;;;;;;30.40;9.60;;;;;;;0.73;76.84;101464.02;108724;1273;22803;-81
2022/01/15 02:40:22;;;;;;;35.30;10.00;;;;;;;0.70;76.94;101466.05;108897;1273;23728;-81
2022/01/15 02:43:18;;;;;;;;;;;;;;;;;;;;;
2022/01/15 02:46:35;;;;;;;34.50;9.70;;;;;;;0.68;76.96;101467.05;109099;1267;21996;-80
2022/01/15 02:49:21;;;;;;;28.10;9.40;;;;;;;0.66;77.03;101469.19;109388;1266;22058;-80
2022/01/15 02:52:49;;;;;;;26.50;8.50;;;;;;;0.65;76.98;101468.89;109490;1267;21983;-80
2022/01/15 02:55:59;;;;;;;35.40;10.40;;;;;;;0.62;77.06;101467.84;109472;1266;23651;-81
2022/01/15 02:59:26;;;;;;;;;;;;;;;;;;;;;
2022/01/15 03:02:23;;;;;;;27.40;9.00;;;;;;;0.60;77.27;101480.09;109575;1267;22371;-80
2022/01/15 03:05:58;;;;;;;24.90;8.80;;;;;;;0.56;77.21;101474.73;109391;1269;21985;-80
2022/01/15 03:09:20;;;;;;;32.00;8.80;;;;;;;0.55;77.31;101474.93;109469;1269;23722;-80
2022/01/15 03:12:14;;;;;;;31.70;9.30;;;;;;;0.56;77.45;101479.41;109260;1267;23600;-79
2022/01/15 03:15:13;;;;;;;29.90;10.00;;;;;;;0.57;77.39;101479.02;109077;1270;23719;-79
2022/01/15 03:21:37;;;;;;;27.50;8.20;;;;;;;0.56;77.42;101482.54;108504;1279;22079;-79
2022/01/15 03:24:39;;;;;;;31.40;9.50;;;;;;;0.56;77.28;101484.45;108635;1279;22005;-81
2022/01/15 03:27:51;;;;;;;28.00;9.10;;;;;;;0.56;77.22;101484.80;108604;1279;22134;-79
2022/01/15 03:30:53;;;;;;;27.90;9.60;;;;;;;0.53;77.20;101484.05;108680;1279;23625;-80
2022/01/15 03:34:15;;;;;;;24.80;8.50;;;;;;;0.51;77.33;101487.31;108656;1276;22418;-80
2022/01/15 03:37:11;;;;;;;26.10;8.00;;;;;;;0.50;77.38;101485.42;108778;1276;23632;-79
2022/01/15 03:40:10;;;;;;;31.30;9.20;;;;;;;0.48;77.30;101483.60;109001;1270;22009;-79
2022/01/15 03:43:18;;;;;;;27.10;9.10;;;;;;;0.46;77.28;101478.67;108990;1273;23758;-79
2022/01/15 03:46:30;;;;;;;;;;;;;;;;;;;;;
2022/01/15 03:49:39;;;;;;;32.10;8.70;;;;;;;0.40;77.25;101473.77;108986;1273;21996;-80
2022/01/15 03:52:45;;;;;;;28.30;9.40;;;;;;;0.38;77.38;101476.47;109483;1264;21991;-80
2022/01/15 03:55:53;;;;;;;27.60;8.70;;;;;;;0.37;77.44;101479.67;109523;1266;23078;-80
2022/01/15 03:59:09;;;;;;;34.80;8.90;;;;;;;0.36;77.50;101481.25;109354;1266;23078;-80
2022/01/15 04:01:56;;;;;;;26.60;8.80;;;;;;;0.38;77.57;101481.86;109355;1267;21998;-79
2022/01/15 04:05:44;;;;;;;32.40;9.10;;;;;;;0.36;77.55;101479.50;109560;1264;21998;-81
2022/01/15 04:09:38;;;;;;;;;;;;;;;;;;;;;
2022/01/15 04:16:57;;;;;;;;;;;;;;;0.28;77.74;101483.24;107344;1291;22380;-82
2022/01/15 04:21:12;;;;;;;28.50;9.60;;;;;;;0.19;77.80;101489.52;107125;1297;22049;-81
2022/01/15 04:24:14;;;;;;;;;;;;;;;;;;;;;
2022/01/15 04:27:21;;;;;;;31.50;11.20;;;;;;;0.19;77.83;101500.79;106378;1299;22028;-81
2022/01/15 04:32:17;;;;;;;;;;;;;;;;;;;;;
2022/01/15 04:36:06;;;;;;;;;;;;;;;;;;;;;
2022/01/15 04:40:00;;;;;;;27.80;9.50;;;;;;;0.17;78.11;101502.95;105882;1308;22039;-79
2022/01/15 04:50:58;;;;;;;32.40;10.50;;;;;;;0.08;78.18;101508.09;106285;1302;22039;-81
2022/01/15 04:54:15;;;;;;;33.80;11.70;;;;;;;0.09;78.29;101505.08;106250;1302;23763;-83
2022/01/15 04:57:06;;;;;;;36.60;11.30;;;;;;;0.11;78.23;101503.39;106290;1302;22029;-83
2022/01/15 05:00:08;;;;;;;;;;;;;;;;;;;;;
2022/01/15 05:02:56;;;;;;;30.70;10.00;;;;;;;0.14;78.18;101501.52;106120;1303;23134;-81
2022/01/15 05:05:51;;;;;;;30.70;10.80;;;;;;;0.15;78.20;101509.64;106394;1299;23772;-81
2022/01/15 05:09:04;;;;;;;28.20;10.70;;;;;;;0.16;78.20;101513.73;106245;1299;22037;-81
2022/01/15 05:11:58;;;;;;;;;;;;;;;;;;;;;
2022/01/15 05:17:44;;;;;;;32.30;11.30;;;;;;;0.30;78.28;101517.61;107570;1289;544317;-83
2022/01/15 05:20:40;;;;;;;;;;;;;;;;;;;;;
2022/01/15 05:24:13;;;;;;;27.00;10.20;;;;;;;0.20;77.94;101520.67;110629;1255;22097;-84
2022/01/15 05:27:51;;;;;;;37.90;12.50;;;;;;;0.16;78.05;101515.45;110518;1256;21973;-83
2022/01/15 05:30:56;;;;;;;38.90;15.70;;;;;;;0.13;78.10;101516.86;105573;1261;5368174;-83
2022/01/15 05:34:19;;;;;;;36.30;15.00;;;;;;;0.11;78.21;101508.79;109860;1262;21984;-82
2022/01/15 05:37:06;;;;;;;44.50;16.50;;;;;;;0.11;78.29;101509.84;109844;1262;21983;-81
2022/01/15 05:40:07;;;;;;;44.60;18.30;;;;;;;0.10;78.47;101515.39;109863;1262;21975;-83
2022/01/15 05:43:24;;;;;;;36.40;17.60;;;;;;;0.14;78.70;101523.38;110059;1262;23036;-83
2022/01/15 05:46:36;;;;;;;;;;;;;;;;;;;;;
2022/01/15 05:49:52;;;;;;;41.60;17.00;;;;;;;0.15;78.47;101527.30;109470;1267;22146;-84
2022/01/15 05:52:57;;;;;;;32.00;13.40;;;;;;;0.15;78.44;101522.27;109315;1267;22020;-84
2022/01/15 05:55:49;;;;;;;33.60;13.00;;;;;;;0.15;78.33;101522.79;109357;1267;23704;-84
2022/01/15 05:58:51;;;;;;;31.10;12.60;;;;;;;0.13;78.29;101520.81;109384;1267;21997;-81
2022/01/15 06:02:22;;;;;;;31.40;14.30;;;;;;;0.13;78.32;101521.02;109268;1268;21982;-84
2022/01/15 06:06:08;;;;;;;42.30;13.70;;;;;;;0.11;78.21;101519.72;109528;1266;21977;-83
2022/01/15 06:09:05;;;;;;;40.10;15.20;;;;;;;0.07;78.26;101522.68;110337;1260;21984;-83
2022/01/15 06:12:09;;;;;;;40.20;11.80;;;;;;;0.06;78.25;101521.15;110241;1261;22741;-83
2022/01/15 06:15:06;;;;;;;27.30;12.10;;;;;;;0.07;78.27;101525.28;110225;1260;21979;-84
2022/01/15 06:18:32;;;;;;;33.50;13.10;;;;;;;0.04;78.19;101525.23;109475;1265;22041;-84
2022/01/15 06:22:08;;;;;;;32.90;11.10;;;;;;;0.00;78.19;101530.59;109081;1273;22926;-83
2022/01/15 06:25:34;;;;;;;32.90;10.70;;;;;;;-0.03;78.18;101538.72;108710;1279;22031;-83
2022/01/15 06:29:20;;;;;;;30.40;11.10;;;;;;;0.06;78.22;101540.22;108009;1285;544805;-84
2022/01/15 06:32:16;;;;;;;30.60;9.60;;;;;;;0.04;78.13;101540.49;111105;1251;23169;-84
2022/01/15 06:35:40;;;;;;;34.50;10.50;;;;;;;0.01;78.21;101543.89;111022;1251;21989;-83
2022/01/15 06:38:57;;;;;;;;;;;;;;;;;;;;;
2022/01/15 06:42:14;;;;;;;;;;;;;;;;;;;;;
2022/01/15 06:45:26;;;;;;;34.10;11.70;;;;;;;-0.04;78.28;101558.98;111102;1252;23679;-84
2022/01/15 06:49:11;;;;;;;43.80;13.60;;;;;;;-0.04;78.28;101559.86;110717;1252;21972;-83
2022/01/15 06:52:32;;;;;;;32.80;11.90;;;;;;;-0.05;78.30;101562.00;110962;1254;23704;-85
2022/01/15 06:56:28;;;;;;;30.60;10.00;;;;;;;-0.08;78.27;101560.26;110814;1255;22001;-83
2022/01/15 06:59:12;;;;;;;;;;;;;;;;;;;;;
2022/01/15 07:02:12;;;;;;;;;;;;;;;;;;;;;
2022/01/15 07:05:28;;;;;;;31.90;11.70;;;;;;;-0.06;78.36;101557.89;110639;1257;23556;-84
2022/01/15 07:09:05;;;;;;;36.20;13.60;;;;;;;-0.06;78.43;101559.80;110544;1257;21985;-84
2022/01/15 07:11:39;;;;;;;36.00;15.10;;;;;;;-0.07;78.42;101562.79;110536;1257;22125;-86
2022/01/15 07:14:33;;;;;;;37.30;15.10;;;;;;;-0.05;78.58;101564.61;110737;1253;21948;-85
2022/01/15 07:17:20;;;;;;;39.30;16.90;;;;;;;-0.03;78.54;101566.39;110691;1257;22024;-86
2022/01/15 07:20:08;;;;;;;39.60;16.40;;;;;;;-0.00;78.59;101566.64;110501;1257;22317;-83
2022/01/15 07:23:23;;;;;;;36.90;15.30;;;;;;;0.02;78.54;101566.90;110631;1257;23595;-84
2022/01/15 07:26:34;;;;;;;39.50;16.50;;;;;;;0.03;78.60;101564.25;110245;1260;22664;-84
2022/01/15 07:29:29;;;;;;;32.60;15.70;;;;;;;0.05;78.65;101568.34;109871;1261;23598;-83
2022/01/15 07:32:23;;;;;;;39.20;18.30;;;;;;;0.07;78.71;101572.72;109953;1260;21978;-83
2022/01/15 07:35:28;;;;;;;38.80;20.50;;;;;;;0.11;78.78;101576.17;109901;1260;21982;-83
2022/01/15 07:39:35;;;;;;;;;;;;;;;;;;;;;
2022/01/15 07:42:57;;;;;;;38.80;19.20;;;;;;;0.13;78.76;101578.52;110039;1263;22573;-84
2022/01/15 07:46:17;;;;;;;45.30;18.80;;;;;;;0.16;78.82;101580.80;111268;1252;21975;-85
2022/01/15 07:49:41;;;;;;;54.90;25.70;;;;;;;0.21;78.94;101586.96;110554;1259;22014;-85
2022/01/15 07:53:13;;;;;;;48.80;24.00;;;;;;;0.27;78.95;101588.06;110447;1259;21960;-85
2022/01/15 07:56:19;;;;;;;58.10;31.10;;;;;;;0.33;78.95;101594.73;110406;1260;23069;-85
2022/01/15 07:59:41;;;;;;;;;;;;;;;;;;;;;
2022/01/15 08:02:54;;;;;;;;;;;;;;;;;;;;;
2022/01/15 08:06:41;;;;;;;38.90;17.60;;;;;;;0.65;79.42;101594.95;109779;1270;21997;-86
2022/01/15 08:10:06;;;;;;;;;;;;;;;;;;;;;
2022/01/15 08:13:24;;;;;;;46.90;20.20;;;;;;;0.84;79.43;101589.88;111769;1251;22014;-85
2022/01/15 08:17:08;;;;;;;35.20;18.30;;;;;;;0.92;79.24;101590.18;111480;1256;21987;-85
2022/01/15 08:20:12;;;;;;;43.60;21.90;;;;;;;0.91;78.72;101595.05;111140;1258;21996;-86
2022/01/15 08:23:18;;;;;;;;;;;;;;;;;;;;;
2022/01/15 08:26:47;;;;;;;37.50;18.50;;;;;;;0.99;78.69;101613.44;111347;1256;22041;-84
2022/01/15 08:45:12;;;;;;;41.80;18.50;;;;;;;1.11;78.11;101625.48;109764;1270;22011;-84
2022/01/15 08:48:39;;;;;;;36.20;17.40;;;;;;;1.13;78.25;101631.80;109456;1268;22089;-85
2022/01/15 08:51:52;;;;;;;44.20;19.30;;;;;;;1.19;78.39;101632.23;109665;1270;22459;-84
2022/01/15 08:55:07;;;;;;;29.60;15.40;;;;;;;1.27;78.32;101636.50;109511;1268;22012;-84
2022/01/15 08:58:02;;;;;;;39.20;18.80;;;;;;;1.32;78.33;101632.79;109249;1270;21999;-83
2022/01/15 09:00:57;;;;;;;42.70;18.90;;;;;;;1.39;78.38;101631.90;109097;1268;21994;-83
2022/01/15 09:03:57;;;;;;;38.30;17.40;;;;;;;1.49;78.37;101634.02;109655;1264;23740;-83
2022/01/15 09:07:13;;;;;;;37.00;18.20;;;;;;;1.56;78.26;101626.19;109823;1263;22003;-84
2022/01/15 09:10:43;;;;;;;;;;;;;;;;;;;;;
2022/01/15 09:13:23;;;;;;;43.90;22.60;;;;;;;1.72;78.23;101624.33;109196;1270;22068;-83
2022/01/15 09:16:37;;;;;;;47.30;22.90;;;;;;;1.84;78.27;101634.09;109243;1272;21990;-86
2022/01/15 09:20:13;;;;;;;54.90;34.00;;;;;;;1.94;78.00;101639.84;109493;1272;22001;-85
2022/01/15 09:23:51;;;;;;;58.30;26.10;;;;;;;2.06;77.87;101643.72;109320;1276;23707;-86
2022/01/15 09:30:42;;;;;;;50.50;29.20;;;;;;;2.29;77.76;101644.92;109508;1276;22009;-86
2022/01/15 09:38:37;;;;;;;42.40;24.30;;;;;;;2.55;77.28;101657.61;111227;1259;24365;-87
2022/01/15 09:42:46;;;;;;;43.20;23.90;;;;;;;2.66;77.02;101664.64;110730;1261;22010;-86
2022/01/15 10:44:07;;;;;;;45.00;29.50;;;;;;;4.24;72.59;101640.44;111109;1263;21919;-85
2022/01/15 10:47:15;;;;;;;37.50;25.70;;;;;;;4.39;72.13;101633.37;111091;1262;21918;-86
2022/01/15 10:50:57;;;;;;;;;;;;;;;;;;;;;
2022/01/15 10:54:36;;;;;;;;;;;;;;;;;;;;;
2022/01/15 11:02:19;;;;;;;29.80;21.80;;;;;;;4.73;70.00;101632.42;111519;1262;21920;-86
2022/01/15 11:06:12;;;;;;;38.90;23.10;;;;;;;4.99;69.25;101625.30;110897;1267;21930;-87
2022/01/15 11:09:40;;;;;;;33.80;22.20;;;;;;;5.59;70.91;101624.10;110764;1266;21972;-87
2022/01/15 11:12:33;;;;;;;33.80;22.00;;;;;;;6.56;74.61;101630.84;110512;1273;22268;-85
2022/01/15 11:18:51;;;;;;;31.90;22.00;;;;;;;7.95;71.34;101622.70;109889;1283;21920;-83
2022/01/15 11:21:40;;;;;;;30.00;20.00;;;;;;;8.43;67.92;101623.81;109916;1282;21857;-85
2022/01/15 11:24:58;;;;;;;27.50;19.30;;;;;;;8.27;61.55;101621.95;109840;1282;21840;-85
2022/01/15 11:28:09;;;;;;;32.20;22.10;;;;;;;7.53;58.03;101633.65;108128;1288;544089;-84
2022/01/15 11:32:10;;;;;;;;;;;;;;;;;;;;;
2022/01/15 11:36:20;;;;;;;29.50;19.20;;;;;;;6.52;58.89;101639.20;110564;1260;21984;-86
2022/01/15 11:39:08;;;;;;;30.60;21.70;;;;;;;6.12;59.30;101642.90;110635;1260;21985;-85
2022/01/15 11:42:40;;;;;;;;;;;;;;;;;;;;;
2022/01/15 11:45:53;;;;;;;31.50;23.10;;;;;;;5.50;59.90;101640.98;110764;1260;21940;-84
2022/01/15 11:49:49;;;;;;;33.40;22.30;;;;;;;5.06;59.39;101641.81;109793;1267;22039;-85
2022/01/15 11:54:04;;;;;;;43.50;25.80;;;;;;;4.56;59.99;101646.58;109775;1267;23076;-83
2022/01/15 11:58:08;;;;;;;;;;;;;;;;;;;;;
2022/01/15 12:01:03;;;;;;;36.10;24.60;;;;;;;3.80;61.42;101640.65;109277;1273;21968;-84
2022/01/15 12:04:55;;;;;;;30.90;22.60;;;;;;;3.57;62.25;101640.66;109445;1276;22015;-86
2022/01/15 12:08:41;;;;;;;38.20;25.00;;;;;;;3.39;62.90;101647.43;111658;1254;22009;-86
2022/01/15 12:11:45;;;;;;;34.70;25.10;;;;;;;3.25;63.41;101651.37;110757;1258;22011;-85
2022/01/15 12:19:47;;;;;;;;;;;;;;;;;;;;;
2022/01/15 12:23:02;;;;;;;37.80;27.80;;;;;;;2.79;64.65;101647.03;109938;1256;22027;-86
2022/01/15 12:26:24;;;;;;;41.20;27.60;;;;;;;2.67;65.01;101641.45;110818;1258;24299;-86
2022/01/15 12:29:31;;;;;;;38.40;27.90;;;;;;;2.53;65.18;101640.35;110412;1262;21981;-84
2022/01/15 12:32:35;;;;;;;45.20;31.50;;;;;;;2.44;65.66;101638.05;109363;1270;22653;-83
2022/01/15 12:36:21;;;;;;;;;;;;;;;;;;;;;
2022/01/15 12:40:23;;;;;;;42.90;29.90;;;;;;;2.27;66.32;101630.61;110553;1263;21981;-84
2022/01/15 12:48:14;;;;;;;;;;;;;;;;;;;;;
2022/01/15 12:52:02;;;;;;;;;;;;;;;;;;;;;
2022/01/15 12:55:59;;;;;;;;;;;;;;;;;;;;;
2022/01/15 12:59:41;;;;;;;;;;;;;;;;;;;;;
2022/01/15 13:07:17;;;;;;;40.40;28.80;;;;;;;2.10;67.74;101608.42;110949;1259;21943;-85
2022/01/15 13:18:28;;;;;;;;;;;;;;;;;;;;;
2022/01/15 13:27:06;;;;;;;49.50;29.40;;;;;;;1.96;68.08;101604.30;110976;1257;23730;-85
2022/01/15 13:30:27;;;;;;;44.50;30.50;;;;;;;1.86;68.08;101605.32;111246;1249;21986;-86
2022/01/15 13:45:33;;;;;;;;;;;;;;;;;;;;;
2022/01/15 13:49:47;;;;;;;;;;;;;;;;;;;;;
2022/01/15 13:53:13;;;;;;;47.80;29.90;;;;;;;1.55;69.27;101606.61;110816;1269;21994;-85
2022/01/15 14:00:59;;;;;;;42.90;31.00;;;;;;;1.56;69.47;101612.96;111501;1261;22390;-84
2022/01/15 14:04:19;;;;;;;48.90;30.30;;;;;;;1.58;69.62;101616.52;111367;1263;22348;-83
2022/01/15 14:12:34;;;;;;;48.80;30.70;;;;;;;1.60;69.76;101618.00;112390;1251;22489;-85
2022/01/15 14:17:12;;;;;;;59.70;39.10;;;;;;;1.58;69.96;101619.30;110434;1272;21973;-85
2022/01/15 14:35:02;;;;;;;41.10;30.60;;;;;;;3.03;66.62;101622.17;108156;1284;548083;-82
2022/01/15 14:37:48;;;;;;;51.30;34.30;;;;;;;3.23;65.21;101629.71;110720;1253;277863;-83
2022/01/15 14:40:50;;;;;;;55.00;34.70;;;;;;;2.72;66.06;101631.45;110664;1255;21971;-83
2022/01/15 14:47:04;;;;;;;51.70;36.30;;;;;;;2.02;67.05;101628.29;110052;1261;21994;-82
2022/01/15 14:50:26;;;;;;;49.70;33.40;;;;;;;1.75;67.86;101622.23;109927;1263;23545;-81
2022/01/15 14:54:10;;;;;;;49.80;32.60;;;;;;;1.60;68.27;101620.95;109997;1261;22006;-82
2022/01/15 14:56:24;;;;;;;51.20;33.00;;;;;;;1.47;68.69;101616.04;109695;1261;21980;-80
2022/01/15 14:59:06;;;;;;;55.10;35.60;;;;;;;1.35;68.88;101613.70;109981;1260;22759;-83
2022/01/15 15:02:17;;;;;;;53.10;36.20;;;;;;;1.27;69.18;101616.02;109836;1260;23125;-83
2022/01/15 15:06:03;;;;;;;52.00;34.20;;;;;;;1.20;69.50;101618.30;109429;1270;22058;-82
2022/01/15 15:12:54;;;;;;;;;;;;;;;;;;;;;
2022/01/15 15:16:22;;;;;;;;;;;;;;;;;;;;;
2022/01/15 15:20:52;;;;;;;51.20;34.40;;;;;;;0.83;70.46;101610.70;109526;1269;22035;-86
2022/01/15 15:24:01;;;;;;;;;;;;;;;;;;;;;
2022/01/15 15:27:03;;;;;;;;;;;;;;;;;;;;;
2022/01/15 15:30:21;;;;;;;47.50;32.80;;;;;;;0.66;70.87;101614.30;108983;1276;21989;-84
2022/01/15 15:33:46;;;;;;;;;;;;;;;;;;;;;
2022/01/15 15:36:41;;;;;;;50.60;34.70;;;;;;;0.57;71.07;101611.11;108831;1273;22004;-84
2022/01/15 15:40:26;;;;;;;66.10;37.20;;;;;;;0.51;71.27;101614.90;109056;1273;22043;-83
2022/01/15 15:43:41;;;;;;;50.80;37.10;;;;;;;0.45;71.47;101609.10;108908;1276;22003;-84
2022/01/15 15:46:49;;;;;;;;;;;;;;;;;;;;;
2022/01/15 15:50:51;;;;;;;60.70;41.10;;;;;;;0.37;71.83;101611.52;109086;1276;22015;-83
2022/01/15 15:54:26;;;;;;;70.40;42.20;;;;;;;0.33;71.90;101615.00;108997;1279;22294;-83
2022/01/15 16:11:25;;;;;;;54.20;42.20;;;;;;;1.88;68.04;101626.61;109773;1264;316735;-84
2022/01/15 16:14:01;;;;;;;53.00;37.60;;;;;;;1.44;68.91;101630.45;109627;1267;21960;-85
2022/01/15 16:16:39;;;;;;;58.00;38.70;;;;;;;1.19;69.47;101629.63;109829;1265;22772;-85
2022/01/15 16:19:18;;;;;;;56.90;38.30;;;;;;;1.02;69.98;101628.19;109863;1263;24287;-85
2022/01/15 16:22:21;;;;;;;62.50;39.70;;;;;;;0.89;70.35;101622.39;109637;1265;21986;-85
2022/01/15 16:25:48;;;;;;;60.10;35.50;;;;;;;0.71;70.71;101617.36;109728;1264;22084;-83
2022/01/15 16:28:45;;;;;;;79.00;41.50;;;;;;;0.60;71.14;101616.15;109954;1259;22378;-85
2022/01/15 16:31:44;;;;;;;60.50;37.70;;;;;;;0.53;71.37;101618.06;110386;1259;22027;-85
2022/01/15 16:35:41;;;;;;;59.20;37.70;;;;;;;0.41;71.73;101613.41;110638;1259;22027;-84
2022/01/15 16:38:33;;;;;;;64.00;38.10;;;;;;;0.38;72.05;101617.86;109683;1265;23752;-84
2022/01/15 16:41:19;;;;;;;52.10;34.50;;;;;;;0.37;72.23;101615.84;110638;1251;21996;-82
2022/01/15 16:44:28;;;;;;;51.70;32.90;;;;;;;0.36;72.39;101615.90;110999;1257;21996;-82
2022/01/15 16:47:17;;;;;;;51.80;35.20;;;;;;;0.36;72.61;101615.05;110521;1256;24301;-83
2022/01/15 16:50:26;;;;;;;49.60;31.10;;;;;;;0.37;72.79;101613.11;110915;1256;23046;-83
2022/01/15 16:53:24;;;;;;;52.00;32.90;;;;;;;0.37;72.89;101610.68;110944;1256;21986;-83
2022/01/15 16:59:39;;;;;;;;;;;;;;;;;;;;;
2022/01/15 17:02:36;;;;;;;49.30;31.10;;;;;;;0.33;73.36;101613.95;111083;1256;22060;-84
2022/01/15 17:05:29;;;;;;;50.90;31.00;;;;;;;0.36;73.29;101611.08;111012;1256;21971;-83
2022/01/15 17:08:10;;;;;;;56.00;32.80;;;;;;;0.36;73.43;101607.23;110899;1256;21978;-84
2022/01/15 17:10:59;;;;;;;48.80;30.50;;;;;;;0.37;73.50;101611.33;111104;1256;22204;-84
2022/01/15 17:13:58;;;;;;;49.40;31.70;;;;;;;0.37;73.44;101617.09;110359;1259;21988;-84
2022/01/15 17:16:38;;;;;;;51.70;30.90;;;;;;;0.37;73.49;101617.94;110337;1259;22222;-83
2022/01/15 17:19:52;;;;;;;44.90;29.90;;;;;;;0.37;73.50;101612.92;110544;1259;21995;-81
2022/01/15 17:22:44;;;;;;;46.90;31.00;;;;;;;0.36;73.52;101615.23;110239;1259;21941;-80
2022/01/15 17:26:22;;;;;;;44.20;29.70;;;;;;;0.33;73.57;101617.78;110497;1259;22077;-81
2022/01/15 17:29:32;;;;;;;;;;;;;;;;;;;;;
2022/01/15 17:33:15;;;;;;;;;;;;;;;;;;;;;
2022/01/15 17:36:32;;;;;;;39.40;26.60;;;;;;;0.26;73.89;101609.27;110877;1256;22001;-82
2022/01/15 17:39:35;;;;;;;43.10;30.10;;;;;;;0.28;73.88;101609.19;110803;1254;22286;-84
2022/01/15 17:43:05;;;;;;;;;;;;;;;;;;;;;
2022/01/15 17:51:23;;;;;;;49.30;31.20;;;;;;;0.21;74.05;101611.38;109124;1276;22015;-82
2022/01/15 17:54:33;;;;;;;42.80;31.20;;;;;;;0.35;74.06;101609.86;107715;1291;544144;-81
2022/01/15 17:57:13;;;;;;;36.10;27.10;;;;;;;0.37;73.88;101609.63;110470;1257;22527;-82
2022/01/15 18:05:38;;;;;;;36.40;26.30;;;;;;;0.22;73.96;101605.47;111286;1257;22866;-83
2022/01/15 18:08:15;;;;;;;38.60;26.10;;;;;;;0.22;74.11;101605.11;110559;1255;414649;-84
2022/01/15 18:11:03;;;;;;;38.70;27.10;;;;;;;0.25;74.14;101606.00;110423;1259;21989;-84
2022/01/15 18:13:36;;;;;;;43.20;28.90;;;;;;;0.25;73.98;101604.45;110374;1259;23681;-82
2022/01/15 18:16:05;;;;;;;;;;;;;;;0.24;73.94;101605.19;110206;1259;21970;-84
2022/01/15 18:18:41;;;;;;;39.60;28.80;;;;;;;0.20;74.20;101603.45;110151;1259;21983;-83
2022/01/15 18:21:10;;;;;;;45.20;28.40;;;;;;;0.23;74.32;101608.87;110254;1259;21971;-84
2022/01/15 18:23:40;;;;;;;42.00;30.80;;;;;;;0.28;74.33;101607.30;110181;1259;22234;-83
2022/01/15 18:26:09;;;;;;;41.40;33.90;;;;;;;0.29;74.13;101604.27;110154;1259;21969;-84
2022/01/15 18:28:46;;;;;;;53.90;39.70;;;;;;;0.28;74.15;101605.16;110489;1254;22223;-83
2022/01/15 18:31:20;;;;;;;54.20;40.60;;;;;;;0.30;74.19;101609.94;110358;1258;21988;-83
2022/01/15 18:33:52;;;;;;;55.30;42.00;;;;;;;0.35;74.31;101607.11;109824;1264;22340;-83
2022/01/15 18:36:22;;;;;;;57.30;42.50;;;;;;;0.40;74.32;101599.41;110010;1261;22028;-84
2022/01/15 18:38:52;;;;;;;52.30;39.40;;;;;;;0.40;74.04;101596.99;109997;1261;22056;-83
2022/01/15 18:41:22;;;;;;;53.90;39.50;;;;;;;0.38;73.91;101598.81;109417;1270;22003;-83
2022/01/15 18:44:03;;;;;;;52.80;38.30;;;;;;;0.37;73.90;101600.24;109589;1270;22059;-85
2022/01/15 18:46:35;;;;;;;60.30;38.70;;;;;;;0.36;74.03;101596.67;109124;1275;21990;-83
2022/01/15 18:49:10;;;;;;;57.70;40.60;;;;;;;0.36;74.06;101594.77;109249;1267;21992;-84
2022/01/15 18:54:55;;;;;;;58.30;37.60;;;;;;;0.41;74.12;101604.05;111355;1254;21984;-83
2022/01/15 18:57:28;;;;;;;54.70;40.50;;;;;;;0.44;74.16;101624.90;111195;1257;22122;-84
2022/01/15 19:00:06;;;;;;;57.80;40.60;;;;;;;0.47;74.04;101628.23;110723;1257;21939;-83
2022/01/15 19:02:36;;;;;;;51.80;41.60;;;;;;;0.49;73.89;101629.70;110452;1256;22059;-84
2022/01/15 19:05:13;;;;;;;130.80;72.50;;;;;;;0.51;74.00;101638.10;110653;1257;21940;-84
2022/01/15 19:07:50;;;;;;;56.80;40.00;;;;;;;0.52;74.02;101638.20;109764;1263;21944;-81
2022/01/15 19:10:19;;;;;;;47.20;33.50;;;;;;;0.51;73.99;101671.91;109417;1267;21969;-82
2022/01/15 19:12:55;;;;;;;47.70;36.40;;;;;;;0.51;73.97;101714.55;109336;1267;24399;-80
2022/01/15 19:15:29;;;;;;;57.80;36.50;;;;;;;0.51;73.99;101642.95;108884;1270;22633;-82
2022/01/15 19:18:04;;;;;;;60.60;41.20;;;;;;;0.52;74.03;101604.08;108901;1276;22020;-82
2022/01/15 19:20:36;;;;;;;62.40;41.40;;;;;;;0.52;74.11;101572.86;108941;1276;22429;-83
2022/01/15 19:23:06;;;;;;;54.20;36.70;;;;;;;0.53;74.31;101585.48;108724;1279;23811;-81
2022/01/15 19:25:35;;;;;;;51.70;36.40;;;;;;;0.56;74.42;101589.32;108672;1275;22060;-79
2022/01/15 19:28:11;;;;;;;59.00;38.60;;;;;;;0.60;74.52;101625.69;108915;1270;22013;-79
2022/01/15 19:30:40;;;;;;;50.30;34.80;;;;;;;0.65;74.68;101623.21;109240;1270;21994;-78